KISM/ISM METAR and TAF weather

Enter ICAO airport designator
Station Type Date Time Source
KISM METAR 2023/02/05 22:56 UTC NOAA

KISM 052256Z 02004KT 10SM CLR 22/16 A3010 RMK AO2 SLP195 T02220161 PNO $


Station Type Date Time Source
KISM Decoded METAR 2023/02/05 22:56 UTC NOAA

Orlando, Kissimmee Municipal Airport, FL, United States (KISM) 28-17-23N 081-26-14W
Feb 05, 2023 - 05:56 PM EST / 2023.02.05 2256 UTC
Wind: from the NNE (020 degrees) at 5 MPH (4 KT):0
Visibility: 10 mile(s):0
Sky conditions: clear
Temperature: 72.0 F (22.2 C)
Dew Point: 61.0 F (16.1 C)
Relative Humidity: 68%
Pressure (altimeter): 30.1 in. Hg (1019 hPa)
ob: KISM 052256Z 02004KT 10SM CLR 22/16 A3010 RMK AO2 SLP195 T02220161 PNO
cycle: 23

Station Type Date Time Source
KISM TAF 2023/02/05 18:42 UTC NOAA

TAF KISM 051740Z 0518/0618 02004KT P6SM VCSH SCT015 OVC090
TEMPO 0518/0520 BKN015
FM052000 02009KT P6SM FEW020 BKN050
FM060300 35005KT P6SM BKN060
FM061500 36008KT P6SM FEW040

Example: see airport list